Flight Track Log - Related Links

Times and Time Zones

All times are in EDT time to prevent confusion due to time zone crossing. See the SKW4622 flight status page for this flight to view local times or setup timezone preferences in your user account.

Time Position Orientation Groundspeed Altitude Reporting Facility
EDT Latitude Longitude Course Direction KTS MPH feet Rate Location/Type
Sun 11:47:12 AM 44.8333 -93.1833 117° Southeast 178 205 3,600  Level Minneapolis TRACON
Sun 11:48:12 AM 44.8167 -93.1167 109° East 213 245 6,800 2,613 Climbing Minneapolis TRACON
Sun 11:49:00 AM 44.7139 -92.7983 110° East  Level Estimated
Sun 11:49:16 AM 44.7867 -93.0189 113° Southeast 265 305 9,000  Level Minneapolis Center
Sun 11:50:00 AM 44.6575 -92.6577 118° Southeast  Level Estimated
Sun 11:50:18 AM 44.7561 -92.9119 112° Southeast 297 342 10,600  Level Minneapolis Center
Sun 11:51:00 AM 44.6009 -92.5173 115° Southeast  Level Estimated
Sun 11:51:19 AM 44.7206 -92.7889 112° Southeast 338 389 12,700  Level Minneapolis Center
Sun 11:52:00 AM 44.5442 -92.3773 117° Southeast  Level Estimated
Sun 11:52:20 AM 44.6703 -92.6747 122° Southeast 345 397 15,000  Level Minneapolis Center
Sun 11:53:21 AM 44.6181 -92.5531 121° Southeast 363 418 16,700 1,561 Climbing Minneapolis Center
Sun 11:54:23 AM 44.5642 -92.4294 121° Southeast 372 428 18,200 1,366 Climbing Minneapolis Center
Sun 11:55:24 AM 44.5086 -92.3053 122° Southeast 375 432 19,500 1,230 Climbing Minneapolis Center
Sun 11:56:25 AM 44.4511 -92.1758 122° Southeast 390 449 20,700 1,180 Climbing Minneapolis Center
Sun 11:57:26 AM 44.3817 -92.0172 121° Southeast 400 460 21,900 1,024 Climbing Minneapolis Center
Sun 11:58:28 AM 44.3222 -91.8836 122° Southeast 405 466 22,800 1,171 Climbing Minneapolis Center
Sun 11:59:29 AM 44.2622 -91.7489 122° Southeast 409 471 24,300 1,082 Climbing Minneapolis Center
Sun 12:00:30 PM 44.2036 -91.6161 122° Southeast 405 466 25,000 344 Climbing Minneapolis Center
Sun 12:01:31 PM 44.1419 -91.4811 122° Southeast 412 474 25,000  Level Minneapolis Center
Sun 12:02:33 PM 44.0825 -91.3500 122° Southeast 406 467 25,000  Level Minneapolis Center
Sun 12:03:34 PM 44.0194 -91.2094 122° Southeast 392 451 25,000  Level Minneapolis Center
Sun 12:04:35 PM 43.9642 -91.0875 122° Southeast 381 438 25,000  Level Minneapolis Center
Sun 12:05:36 PM 43.9081 -90.9667 123° Southeast 376 433 25,000  Level Minneapolis Center
Sun 12:06:21 PM 43.8636 -90.8714 123° Southeast 374 430 25,000  Level Chicago Center
Sun 12:07:22 PM 43.8075 -90.7508 123° Southeast 373 429 25,000  Level Chicago Center
Sun 12:08:23 PM 43.7522 -90.6283 122° Southeast 377 434 25,000  Level Chicago Center
Sun 12:08:40 PM 43.7408 -90.6031 122° Southeast 379 436 25,000  Level Minneapolis Center
Sun 12:09:41 PM 43.6836 -90.4803 123° Southeast 381 438 25,000  Level Minneapolis Center
Sun 12:10:43 PM 43.6253 -90.3558 123° Southeast 385 443 25,000  Level Minneapolis Center
Sun 12:11:27 PM 43.5722 -90.2439 123° Southeast 387 445 25,000  Level Chicago Center
Sun 12:12:28 PM 43.5125 -90.1192 123° Southeast 388 447 25,000  Level Chicago Center
Sun 12:13:29 PM 43.4531 -89.9928 123° Southeast 392 451 25,000  Level Chicago Center
Sun 12:14:31 PM 43.3931 -89.8667 123° Southeast 394 453 25,000  Level Chicago Center
Sun 12:15:32 PM 43.3314 -89.7386 123° Southeast 398 458 25,000  Level Chicago Center
Sun 12:16:33 PM 43.2706 -89.6125 123° Southeast 399 459 25,000  Level Chicago Center
Sun 12:17:34 PM 43.2097 -89.4850 123° Southeast 400 460 25,000  Level Chicago Center
Sun 12:18:35 PM 43.1475 -89.3567 124° Southeast 403 464 25,000  Level Chicago Center
Sun 12:19:37 PM 43.0756 -89.2097 124° Southeast 401 461 25,000  Level Chicago Center
Sun 12:20:38 PM 43.0136 -89.0825 124° Southeast 403 464 25,000  Level Chicago Center
Sun 12:21:39 PM 42.9511 -88.9553 124° Southeast 405 466 25,000  Level Chicago Center
Sun 12:22:41 PM 42.8886 -88.8267 124° Southeast 407 468 25,000  Level Chicago Center
Sun 12:23:41 PM 42.8244 -88.6992 124° Southeast 411 473 25,000  Level Chicago Center
Sun 12:24:43 PM 42.7608 -88.5711 124° Southeast 410 472 25,000  Level Chicago Center
Sun 12:25:44 PM 42.6967 -88.4422 124° Southeast 411 473 25,000  Level Chicago Center
Sun 12:26:45 PM 42.6219 -88.2919 124° Southeast 413 475 25,000  Level Chicago Center
Sun 12:27:46 PM 42.5561 -88.1631 125° Southeast 415 478 25,000  Level Chicago Center
Sun 12:28:48 PM 42.4914 -88.0344 124° Southeast 414 476 25,000  Level Chicago Center
Sun 12:29:49 PM 42.4264 -87.9075 125° Southeast 413 475 25,000  Level Chicago Center
Sun 12:30:50 PM 42.3619 -87.7778 124° Southeast 414 476 25,000  Level Chicago Center
Sun 12:31:51 PM 42.2939 -87.6475 125° Southeast 411 473 25,000  Level Chicago Center
Sun 12:32:53 PM 42.2286 -87.5200 125° Southeast 412 474 25,000  Level Chicago Center
Sun 12:33:54 PM 42.1631 -87.3947 125° Southeast 410 472 25,000  Level Chicago Center
Sun 12:34:55 PM 42.0972 -87.2681 125° Southeast 412 474 25,000  Level Chicago Center
Sun 12:35:57 PM 42.0319 -87.1422 125° Southeast 410 472 25,000  Level Chicago Center
Sun 12:36:58 PM 41.9661 -87.0167 125° Southeast 410 472 25,000  Level Chicago Center
Sun 12:37:59 PM 41.8997 -86.8917 125° Southeast 411 473 25,000  Level Chicago Center
Sun 12:39:01 PM 41.8208 -86.7428 125° Southeast 409 471 25,000  Level Chicago Center
Sun 12:40:02 PM 41.7658 -86.6392 125° Southeast 409 471 25,000  Level Chicago Center
Sun 12:41:04 PM 41.6861 -86.4922 126° Southeast 408 470 25,000  Level Chicago Center
Sun 12:42:05 PM 41.6211 -86.3681 125° Southeast 408 470 25,000  Level Chicago Center
Sun 12:43:06 PM 41.5561 -86.2456 125° Southeast 407 468 25,000  Level Chicago Center
Sun 12:44:08 PM 41.4892 -86.1231 126° Southeast 409 471 25,000  Level Chicago Center
Sun 12:45:09 PM 41.4289 -85.9997 123° Southeast 404 465 25,000  Level Chicago Center
Sun 12:46:11 PM 41.3706 -85.8742 122° Southeast 402 463 25,000  Level Chicago Center
Sun 12:47:12 PM 41.3125 -85.7494 122° Southeast 400 460 25,000  Level Chicago Center
Sun 12:48:14 PM 41.2422 -85.5994 122° Southeast 404 465 25,000  Level Chicago Center
Sun 12:49:15 PM 41.1839 -85.4733 122° Southeast 407 468 25,000  Level Chicago Center
Sun 12:50:17 PM 41.1256 -85.3489 122° Southeast 403 464 25,000 -293 Level Chicago Center
Sun 12:51:18 PM 41.0653 -85.2239 123° Southeast 403 464 24,400 -780 Descending Chicago Center
Sun 12:52:20 PM 41.0028 -85.0908 122° Southeast 419 482 23,400 -683 Descending Chicago Center
Sun 12:53:21 PM 40.9397 -84.9611 123° Southeast 423 487 23,000 -197 Descending Chicago Center
Sun 12:54:22 PM 40.8803 -84.8358 122° Southeast 412 474 23,000  Level Chicago Center
Sun 12:55:24 PM 40.8228 -84.6778 116° Southeast 402 463 23,000  Level Chicago Center
Sun 12:56:25 PM 40.7803 -84.5433 113° Southeast 401 461 23,000  Level Chicago Center
Sun 12:56:40 PM 40.7700 -84.5075 111° Southeast 396 456 23,000  Level Indianapolis Center
Sun 12:57:42 PM 40.7269 -84.3719 113° Southeast 398 458 23,000  Level Indianapolis Center
Sun 12:58:44 PM 40.6842 -84.2361 113° Southeast 398 458 23,000  Level Indianapolis Center
Sun 12:59:45 PM 40.6411 -84.0997 113° Southeast 398 458 23,000 -1,024 Level Indianapolis Center
Sun 01:00:47 PM 40.6000 -83.9678 112° Southeast 388 447 20,900 -2,129 Descending Indianapolis Center
Sun 01:01:49 PM 40.5594 -83.8411 113° Southeast 374 430 18,600 -2,169 Descending Indianapolis Center
Sun 01:02:10 PM 40.5394 -83.7842 115° Southeast 365 420 17,900 -1,950 Descending Indianapolis Center
Sun 01:02:29 PM 40.5292 -83.7528 113° Southeast 363 418 17,300 -1,756 Descending Indianapolis Center
Sun 01:02:51 PM 40.5200 -83.7194 110° East 362 417 16,700 -2,361 Descending Indianapolis Center
Sun 01:03:30 PM 40.4900 -83.6297 114° Southeast 350 403 14,900 -2,323 Descending Indianapolis Center
Sun 01:03:53 PM 40.4814 -83.6008 111° Southeast 353 406 14,300 -2,273 Descending Indianapolis Center
Sun 01:04:36 PM 40.4508 -83.5069 113° Southeast 330 380 12,400 -2,262 Descending Indianapolis Center
Sun 01:04:54 PM 40.4447 -83.4883 113° Southeast 338 389 12,000 -1,377 Descending Indianapolis Center
Sun 01:05:37 PM 40.3914 -83.4283 139° Southeast 302 348 11,000 -1,161 Descending Indianapolis Center
Sun 01:05:56 PM 40.3786 -83.4178 148° Southeast 320 368 10,800 -984 Descending Indianapolis Center
Sun 01:06:38 PM 40.3203 -83.3706 148° Southeast 296 341 10,000 -774 Descending Indianapolis Center
Sun 01:06:58 PM 40.2964 -83.3500 147° Southeast 303 349 10,000  Level Indianapolis Center
Sun 01:07:39 PM 40.2489 -83.3125 149° Southeast 286 329 10,000  Level Indianapolis Center
Sun 01:08:00 PM 40.2275 -83.2961 150° Southeast 289 333 10,000  Level Indianapolis Center
Sun 01:08:40 PM 40.1797 -83.2553 147° Southeast 291 335 10,000 -387 Level Indianapolis Center
Sun 01:09:02 PM 40.1664 -83.2292 124° Southeast 283 326 9,600 -1,279 Descending Indianapolis Center
Sun 01:09:41 PM 40.1394 -83.1739 123° Southeast 260 299 8,700 -1,355 Descending Indianapolis Center
Sun 01:10:04 PM 40.1278 -83.1478 120° Southeast 262 302 8,200 -1,672 Descending Indianapolis Center
Sun 01:10:42 PM 40.1050 -83.0964 120° Southeast 251 289 7,000 -1,645 Descending Indianapolis Center
Sun 01:11:06 PM 40.0983 -83.0650 106° East 254 292 6,500 -885 Descending Indianapolis Center
Sun 01:11:43 PM 40.0900 -83.0100 101° East 237 273 6,100 -492 Descending Indianapolis Center
Sun 01:12:07 PM 40.0853 -82.9789 101° East 241 277 6,000  Descending Indianapolis Center
Sun 01:12:44 PM 40.0769 -82.9242 101° East 237 273 6,100  Climbing Indianapolis Center
Sun 01:13:09 PM 40.0722 -82.8928 101° East 240 276 6,000 -787 Descending Indianapolis Center
Sun 01:13:45 PM 40.0639 -82.8381 101° East 241 277 5,300 -1,258 Descending Indianapolis Center
Sun 01:14:11 PM 40.0583 -82.8075 103° East 239 275 4,700 -689 Descending Indianapolis Center
Sun 01:14:46 PM 40.0506 -82.7550 101° East 234 269 4,600 -194 Descending Indianapolis Center
Sun 01:15:13 PM 40.0472 -82.7197 97° East 240 276 4,500 -300 Descending Indianapolis Center
Sun 01:15:46 PM 40.0156 -82.6831 138° Southeast 227 261 4,300 -484 Descending Indianapolis Center
Sun 01:16:15 PM 40.0003 -82.6864 189° South 229 264 4,000 -982 Descending Indianapolis Center
Sun 01:16:41 PM 39.9903 -82.7183 248° West 148 170 3,400 -1,385 Descending Indianapolis Center

Login

Don't have an account? Register now (free) for customized features, flight alerts, and more!